Weather at Carlson Airport

Public forecast

Using degrees Fahrenheit for public forecast. Weather courtesy of forecast.io.

Closest aviation weather report (METAR) to Carlson Airport

Closest report is Chippewa Valley Regional Airport, 8.6 nm (15.9 km) N. Retrieved 2021/06/23 00:56 UTC (46 minutes ago):

KEAU 230056Z 21003KT 10SM CLR 21/04 A2987 RMK AO2 SLP113 T02110044

Closest aviation forecast (TAF) to Carlson Airport

Closest forecast is Chippewa Valley Regional Airport, 8.6 nm (15.9 km) N. Retrieved 2021-06-23 00:45 UTC (57 minutes ago):

TAF KEAU 222339Z 2300/2324 18004KT P6SM FEW250 FM230200 13004KT P6SM SCT250 FM231300 18007KT P6SM FEW250 FM231600 18011KT P6SM SCT050